Time;durP1;ratioP1;P1;durP2;ratioP2;P2;SDS_P1;SDS_P2;PMS_P1;PMS_P2;Temp;Humidity;BMP_temperature;BMP_pressure;BME280_temperature;BME280_humidity;BME280_pressure;Samples;Min_cycle;Max_cycle;Signal;HPM_P1;HPM_P2
2021/04/28 00:00:20;;;;;;;;;;;;;;;;;;4350136;32;19962;-83
2021/04/28 00:02:47;;;;;;;;;;;;;;;;;;4362186;32;19963;-84
2021/04/28 00:05:15;;;;;;;;;;;;;;;;;;4364714;32;19967;-84
2021/04/28 00:07:43;;;;;;;;;;;;;;;;;;4361763;32;20052;-84
2021/04/28 00:10:11;;;;;;;;;;;;;;;;;;4344947;32;20122;-85
2021/04/28 00:12:38;;;;;;;;;;;;;;;;;;4343031;32;20031;-83
2021/04/28 00:15:06;;;;;;;;;;;;;;;;;;4354297;32;20377;-83
2021/04/28 00:17:33;;;;;;;;;;;;;;;;;;4345854;32;19991;-84
2021/04/28 00:20:01;;;;;;;;;;;;;;;;;;4365089;32;20046;-84
2021/04/28 00:22:29;;;;;;;;;;;;;;;;;;4370013;32;20229;-84
2021/04/28 00:24:56;;;;;;;;;;;;;;;;;;4363897;32;20030;-84
2021/04/28 00:27:24;;;;;;;;;;;;;;;;;;4342839;32;20037;-84
2021/04/28 00:30:00;;;;;;;;;;;;;;;;;;4363860;32;19971;-84
2021/04/28 00:32:30;;;;;;;;;;;;;;;;;;4360619;32;20018;-84
2021/04/28 00:34:58;;;;;;;;;;;;;;;;;;4346423;32;20021;-83
2021/04/28 00:37:26;;;;;;;;;;;;;;;;;;4348873;32;20061;-85
2021/04/28 00:39:53;;;;;;;;;;;;;;;;;;4355318;32;19965;-84
2021/04/28 00:42:23;;;;;;;;;;;;;;;;;;4360891;32;20019;-84
2021/04/28 00:44:51;;;;;;;;;;;;;;;;;;4369380;32;19997;-84
2021/04/28 00:47:18;;;;;;;;;;;;;;;;;;4352691;32;20066;-85
2021/04/28 00:49:46;;;;;;;;;;;;;;;;;;4339693;32;19967;-83
2021/04/28 00:52:14;;;;;;;;;;;;;;;;;;4340239;32;20067;-84
2021/04/28 00:54:42;;;;;;;;;;;;;;;;;;4348059;32;20077;-85
2021/04/28 00:57:09;;;;;;;;;;;;;;;;;;4345365;32;20037;-84
2021/04/28 00:59:37;;;;;;;;;;;;;;;;;;4354426;32;19970;-84
2021/04/28 01:02:05;;;;;;;;;;;;;;;;;;4362976;32;19959;-83
2021/04/28 01:04:33;;;;;;;;;;;;;;;;;;4367208;32;20197;-84
2021/04/28 01:07:01;;;;;;;;;;;;;;;;;;4351216;32;20324;-85
2021/04/28 01:09:30;;;;;;;;;;;;;;;;;;4356343;32;19959;-83
2021/04/28 01:11:58;;;;;;;;;;;;;;;;;;4358680;32;20034;-83
2021/04/28 01:14:26;;;;;;;;;;;;;;;;;;4367292;32;19958;-84
2021/04/28 01:16:54;;;;;;;;;;;;;;;;;;4346684;32;20091;-84
2021/04/28 01:19:22;;;;;;;;;;;;;;;;;;4354165;32;19955;-84
2021/04/28 01:21:51;;;;;;;;;;;;;;;;;;4365378;32;20040;-84
2021/04/28 01:24:18;;;;;;;;;;;;;;;;;;4360649;32;20036;-84
2021/04/28 01:26:46;;;;;;;;;;;;;;;;;;4347434;32;20053;-84
2021/04/28 01:29:14;;;;;;;;;;;;;;;;;;4361238;32;20041;-84
2021/04/28 01:31:42;;;;;;;;;;;;;;;;;;4344778;32;19970;-84
2021/04/28 01:34:10;;;;;;;;;;;;;;;;;;4353878;32;19959;-83
2021/04/28 01:36:38;;;;;;;;;;;;;;;;;;4357039;32;19966;-83
2021/04/28 01:39:06;;;;;;;;;;;;;;;;;;4352703;32;20412;-84
2021/04/28 01:41:34;;;;;;;;;;;;;;;;;;4346304;32;20032;-84
2021/04/28 01:44:02;;;;;;;;;;;;;;;;;;4359789;32;20030;-84
2021/04/28 01:46:30;;;;;;;;;;;;;;;;;;4369029;32;19959;-84
2021/04/28 01:48:58;;;;;;;;;;;;;;;;;;4351306;32;19959;-84
2021/04/28 01:51:26;;;;;;;;;;;;;;;;;;4362778;32;19947;-84
2021/04/28 01:53:54;;;;;;;;;;;;;;;;;;4348196;32;20503;-84
2021/04/28 01:56:22;;;;;;;;;;;;;;;;;;4351544;32;20612;-84
2021/04/28 01:58:52;;;;;;;;;;;;;;;;;;4355328;32;19967;-83
2021/04/28 02:01:20;;;;;;;;;;;;;;;;;;4361252;32;20396;-83
2021/04/28 02:03:49;;;;;;;;;;;;;;;;;;4335885;32;20004;-83
2021/04/28 02:06:17;;;;;;;;;;;;;;;;;;4352679;32;19955;-83
2021/04/28 02:08:44;;;;;;;;;;;;;;;;;;4362031;32;20076;-84
2021/04/28 02:11:15;;;;;;;;;;;;;;;;;;4352001;32;20034;-84
2021/04/28 02:13:42;;;;;;;;;;;;;;;;;;4347303;32;19970;-84
2021/04/28 02:16:10;;;;;;;;;;;;;;;;;;4351174;32;19999;-84
2021/04/28 02:18:38;;;;;;;;;;;;;;;;;;4339147;32;19995;-84
2021/04/28 02:21:06;;;;;;;;;;;;;;;;;;4339511;32;20056;-83
2021/04/28 02:23:34;;;;;;;;;;;;;;;;;;4343623;32;19982;-84
2021/04/28 02:26:02;;;;;;;;;;;;;;;;;;4340762;32;20303;-85
2021/04/28 02:28:32;;;;;;;;;;;;;;;;;;4339846;32;20014;-84
2021/04/28 02:30:59;;;;;;;;;;;;;;;;;;4340731;32;20098;-84
2021/04/28 02:33:28;;;;;;;;;;;;;;;;;;4336842;32;20030;-84
2021/04/28 02:35:59;;;;;;;;;;;;;;;;;;4342943;32;20373;-83
2021/04/28 02:38:28;;;;;;;;;;;;;;;;;;4340896;32;20346;-85
2021/04/28 02:40:56;;;;;;;;;;;;;;;;;;4332190;32;20345;-83
2021/04/28 02:43:24;;;;;;;;;;;;;;;;;;4331124;32;20093;-84
2021/04/28 02:45:52;;;;;;;;;;;;;;;;;;4338171;32;20017;-84
2021/04/28 02:48:20;;;;;;;;;;;;;;;;;;4336555;32;19987;-84
2021/04/28 02:50:49;;;;;;;;;;;;;;;;;;4338878;32;19981;-84
2021/04/28 02:53:18;;;;;;;;;;;;;;;;;;4351609;32;20291;-84
2021/04/28 02:55:46;;;;;;;;;;;;;;;;;;4347531;32;20001;-83
2021/04/28 02:58:13;;;;;;;;;;;;;;;;;;4352516;32;19970;-83
2021/04/28 03:00:41;;;;;;;;;;;;;;;;;;4342913;32;19983;-84
2021/04/28 03:03:09;;;;;;;;;;;;;;;;;;4346111;32;19956;-85
2021/04/28 03:05:38;;;;;;;;;;;;;;;;;;4344104;32;19944;-84
2021/04/28 03:08:09;;;;;;;;;;;;;;;;;;4337153;32;19966;-83
2021/04/28 11:50:27;;;;;;;;;;;;;;;;;;4200462;33;19965;-87
2021/04/28 13:10:56;;;;;;;;;;;;;;;;;;4866820;28;20078;-90
2021/04/28 13:16:33;;;;;;;;;;;;;;;;;;4156670;34;20271;-89
2021/04/28 13:23:11;;;;;;;;;;;;;;;;;;4091380;34;20117;-86
2021/04/28 13:29:05;;;;;;;;;;;;;;;;;;4109923;34;19971;-88
2021/04/28 14:00:50;;;;;;;;;;;;;;;;;;4267856;28;20013;-89
2021/04/28 14:06:50;;;;;;;;;;;;;;;;;;4166912;34;20022;-89
2021/04/28 14:09:54;;;;;;;;;;;;;;;;;;4161789;34;19993;-88
2021/04/28 14:18:38;;;;;;;;;;;;;;;;;;;;;
2021/04/28 14:21:54;;;;;;;;;;;;;;;;;;4146159;34;20110;-88
2021/04/28 14:30:46;;;;;;;;;;;;;;;;;;4175028;28;20021;-88
2021/04/28 14:39:49;;;;;;;;;;;;;;;;;;4142997;34;20044;-88
2021/04/28 14:55:12;;;;;;;;;;;;;;;;;;4164498;34;19967;-87
2021/04/28 14:58:17;;;;;;;;;;;;;;;;;;4135594;34;20004;-89
2021/04/28 21:40:44;;;;;;;;;;;;;;;;;;4583715;28;20310;-84
2021/04/28 21:43:13;;;;;;;;;;;;;;;;;;4202385;34;19958;-84
2021/04/28 21:45:43;;;;;;;;;;;;;;;;;;4205868;34;20561;-84
2021/04/28 21:48:10;;;;;;;;;;;;;;;;;;4183757;34;20025;-85
2021/04/28 21:50:43;;;;;;;;;;;;;;;;;;4195220;34;20069;-84
2021/04/28 21:53:15;;;;;;;;;;;;;;;;;;4206439;34;20010;-84
2021/04/28 21:55:46;;;;;;;;;;;;;;;;;;4205084;34;20113;-85
2021/04/28 21:58:15;;;;;;;;;;;;;;;;;;4205294;34;20457;-83
2021/04/28 22:00:48;;;;;;;;;;;;;;;;;;4195282;34;20822;-85
2021/04/28 22:03:19;;;;;;;;;;;;;;;;;;4196913;34;20028;-85
2021/04/28 22:05:49;;;;;;;;;;;;;;;;;;4182843;34;19966;-85
2021/04/28 22:08:19;;;;;;;;;;;;;;;;;;4191435;34;20003;-84
2021/04/28 22:10:48;;;;;;;;;;;;;;;;;;4199012;34;20048;-85
2021/04/28 22:13:19;;;;;;;;;;;;;;;;;;4209007;34;20014;-84
2021/04/28 22:15:46;;;;;;;;;;;;;;;;;;4210497;34;19971;-84
2021/04/28 22:18:24;;;;;;;;;;;;;;;;;;4206514;34;19973;-84
2021/04/28 22:20:55;;;;;;;;;;;;;;;;;;4208741;34;20697;-85
2021/04/28 22:23:27;;;;;;;;;;;;;;;;;;4201595;34;19978;-85
2021/04/28 22:26:00;;;;;;;;;;;;;;;;;;4186829;34;20306;-84
2021/04/28 22:28:31;;;;;;;;;;;;;;;;;;4197248;34;20052;-84
2021/04/28 22:31:02;;;;;;;;;;;;;;;;;;4194597;34;20650;-84
2021/04/28 22:33:33;;;;;;;;;;;;;;;;;;4201109;34;19968;-85
2021/04/28 22:36:04;;;;;;;;;;;;;;;;;;4207459;34;20002;-84
2021/04/28 22:38:31;;;;;;;;;;;;;;;;;;4210096;34;20068;-84
2021/04/28 22:41:02;;;;;;;;;;;;;;;;;;4203783;34;20006;-84
2021/04/28 22:43:32;;;;;;;;;;;;;;;;;;4200109;34;20037;-85
2021/04/28 22:45:59;;;;;;;;;;;;;;;;;;4202776;34;19963;-84
2021/04/28 22:48:27;;;;;;;;;;;;;;;;;;4210082;34;19972;-84
2021/04/28 22:50:57;;;;;;;;;;;;;;;;;;4205285;34;19959;-85
2021/04/28 22:53:27;;;;;;;;;;;;;;;;;;4206596;34;20345;-84
2021/04/28 22:55:58;;;;;;;;;;;;;;;;;;4198453;34;20044;-85
2021/04/28 22:58:28;;;;;;;;;;;;;;;;;;4187342;34;20028;-85
2021/04/28 23:00:58;;;;;;;;;;;;;;;;;;4211214;34;20344;-85
2021/04/28 23:03:28;;;;;;;;;;;;;;;;;;4205326;34;20402;-84
2021/04/28 23:05:59;;;;;;;;;;;;;;;;;;4203019;34;19977;-85
2021/04/28 23:08:28;;;;;;;;;;;;;;;;;;4215597;34;19970;-84
2021/04/28 23:10:59;;;;;;;;;;;;;;;;;;4194606;34;19966;-84
2021/04/28 23:13:30;;;;;;;;;;;;;;;;;;4211468;34;20452;-85
2021/04/28 23:16:00;;;;;;;;;;;;;;;;;;4194205;34;19990;-85
2021/04/28 23:18:30;;;;;;;;;;;;;;;;;;4202093;34;19999;-85
2021/04/28 23:21:01;;;;;;;;;;;;;;;;;;4206496;34;19969;-83
2021/04/28 23:23:31;;;;;;;;;;;;;;;;;;4209735;34;20413;-84
2021/04/28 23:26:01;;;;;;;;;;;;;;;;;;4209297;34;20065;-84
2021/04/28 23:28:31;;;;;;;;;;;;;;;;;;4201990;34;19962;-84
2021/04/28 23:31:01;;;;;;;;;;;;;;;;;;4208751;34;20003;-85
2021/04/28 23:33:34;;;;;;;;;;;;;;;;;;4204306;34;19976;-85
2021/04/28 23:36:04;;;;;;;;;;;;;;;;;;4196526;34;20527;-85
2021/04/28 23:38:34;;;;;;;;;;;;;;;;;;4201199;34;20018;-84
2021/04/28 23:41:05;;;;;;;;;;;;;;;;;;4195962;34;19984;-84
2021/04/28 23:43:35;;;;;;;;;;;;;;;;;;4179991;34;20148;-85
2021/04/28 23:46:06;;;;;;;;;;;;;;;;;;4202088;34;19959;-84
2021/04/28 23:48:36;;;;;;;;;;;;;;;;;;4217485;34;19959;-84
2021/04/28 23:51:06;;;;;;;;;;;;;;;;;;4211276;34;20023;-84
2021/04/28 23:53:37;;;;;;;;;;;;;;;;;;4201669;34;20331;-84
2021/04/28 23:56:07;;;;;;;;;;;;;;;;;;4195778;34;20018;-84
2021/04/28 23:58:38;;;;;;;;;;;;;;;;;;4203305;34;20365;-84
